Time;durP1;ratioP1;P1;durP2;ratioP2;P2;SDS_P1;SDS_P2;PMS_P1;PMS_P2;Temp;Humidity;BMP_temperature;BMP_pressure;BME280_temperature;BME280_humidity;BME280_pressure;Samples;Min_cycle;Max_cycle;Signal;HPM_P1;HPM_P2
2021/12/20 00:01:52;;;;;;;;;31.00;26.00;;;;;7.14;73.28;102023.84;5057612;28;46579;-76
2021/12/20 00:04:17;;;;;;;;;31.50;28.50;;;;;7.43;73.32;102072.22;5057857;28;45348;-76
2021/12/20 00:06:43;;;;;;;;;36.25;24.25;;;;;7.42;73.41;102071.31;5058158;28;45457;-77
2021/12/20 00:09:08;;;;;;;;;27.00;23.50;;;;;7.30;74.24;102049.84;5057911;28;45325;-77
2021/12/20 00:11:34;;;;;;;;;33.25;29.50;;;;;7.27;74.48;102038.38;5057023;28;46355;-76
2021/12/20 00:13:59;;;;;;;;;33.50;32.50;;;;;7.21;74.25;102025.00;5057338;28;45338;-77
2021/12/20 00:16:25;;;;;;;;;30.25;27.75;;;;;7.31;74.09;102035.91;5057926;28;45202;-76
2021/12/20 00:18:51;;;;;;;;;32.00;27.00;;;;;7.49;73.88;102072.50;5057766;28;45168;-77
2021/12/20 00:21:16;;;;;;;;;28.75;28.75;;;;;7.37;73.94;102054.53;5057847;28;46200;-76
2021/12/20 00:23:42;;;;;;;;;28.25;25.75;;;;;7.27;73.74;102038.38;5057771;28;45415;-76
2021/12/20 00:26:09;;;;;;;;;26.50;20.75;;;;;7.41;73.97;102060.78;5057702;28;45369;-76
2021/12/20 00:28:34;;;;;;;;;30.75;24.00;;;;;7.37;74.34;102053.63;5057780;28;45341;-77
2021/12/20 00:31:00;;;;;;;;;28.50;23.75;;;;;7.42;73.75;102058.22;5057565;28;46224;-76
2021/12/20 00:33:28;;;;;;;;;27.00;24.25;;;;;7.30;73.75;102022.75;5057367;28;45378;-77
2021/12/20 00:35:54;;;;;;;;;23.75;23.25;;;;;7.45;74.15;102060.09;5057808;28;45157;-76
2021/12/20 00:41:03;;;;;;;;;23.75;23.75;;;;;7.35;74.26;102043.09;5057219;28;45452;-77
2021/12/20 00:43:28;;;;;;;;;29.75;26.50;;;;;7.35;74.31;102036.94;5057325;28;45207;-77
2021/12/20 00:45:54;;;;;;;;;22.75;20.75;;;;;7.25;73.81;102017.31;5057208;28;45592;-78
2021/12/20 00:48:19;;;;;;;;;22.50;22.00;;;;;7.43;73.92;102057.38;5057276;28;45258;-77
2021/12/20 00:50:45;;;;;;;;;32.75;28.00;;;;;7.40;73.25;102045.88;5057195;28;46025;-78
2021/12/20 00:53:12;;;;;;;;;25.50;22.00;;;;;7.46;73.99;102058.38;5057301;28;45264;-80
2021/12/20 00:55:38;;;;;;;;;19.50;17.25;;;;;7.30;74.03;102022.75;5057528;28;45377;-78
2021/12/20 00:58:04;;;;;;;;;28.25;26.00;;;;;7.36;73.49;102033.50;5057571;28;45314;-78
2021/12/20 01:00:36;;;;;;;;;24.75;22.75;;;;;7.04;73.70;101984.97;5057018;28;45428;-78
2021/12/20 01:03:04;;;;;;;;;24.75;22.00;;;;;7.03;73.34;101988.44;5056923;28;45373;-78
2021/12/20 01:05:29;;;;;;;;;24.25;24.00;;;;;7.20;72.90;102007.47;5057177;28;45452;-77
2021/12/20 01:07:59;;;;;;;;;26.50;24.50;;;;;7.36;73.25;102038.75;5057317;28;45433;-78
2021/12/20 01:10:25;;;;;;;;;23.00;21.75;;;;;7.39;74.04;102036.25;5056771;28;45706;-78
2021/12/20 01:12:53;;;;;;;;;22.75;17.50;;;;;7.39;74.02;102031.00;5057191;28;45422;-78
2021/12/20 01:15:22;;;;;;;;;23.50;21.50;;;;;7.41;73.62;102026.69;5039077;28;45426;-78
2021/12/20 01:17:48;;;;;;;;;32.75;26.00;;;;;7.35;72.97;102027.38;5057233;28;45228;-78
2021/12/20 01:20:15;;;;;;;;;32.00;29.25;;;;;7.18;73.56;101996.06;5058723;28;47349;-78
2021/12/20 01:22:42;;;;;;;;;25.00;22.75;;;;;7.12;73.89;101979.22;5059665;28;45372;-78
2021/12/20 01:25:08;;;;;;;;;29.75;24.50;;;;;7.33;73.80;102018.50;5061549;28;45408;-79
2021/12/20 01:27:33;;;;;;;;;22.00;20.25;;;;;7.34;73.17;102012.44;5044132;28;45523;-80
2021/12/20 01:29:58;;;;;;;;;26.50;23.75;;;;;7.32;73.39;102007.97;5060518;28;45553;-79
2021/12/20 01:32:24;;;;;;;;;22.75;21.75;;;;;7.09;72.85;101968.63;5060621;28;45359;-78
2021/12/20 01:34:49;;;;;;;;;25.25;24.25;;;;;7.13;72.93;101981.00;5060654;28;45353;-78
2021/12/20 01:37:15;;;;;;;;;28.00;22.50;;;;;7.42;73.45;102028.50;5060254;28;45432;-80
2021/12/20 01:39:41;;;;;;;;;32.00;26.25;;;;;7.42;73.35;102020.63;5060259;28;46322;-78
2021/12/20 01:42:07;;;;;;;;;29.00;25.50;;;;;7.17;73.72;101975.91;5060142;28;45219;-78
2021/12/20 01:44:33;;;;;;;;;26.25;25.50;;;;;7.43;72.94;102027.66;5059924;28;45283;-78
2021/12/20 01:47:01;;;;;;;;;27.00;24.00;;;;;7.31;73.11;102011.44;5041965;28;45273;-76
2021/12/20 01:49:28;;;;;;;;;34.00;29.75;;;;;7.40;72.89;102009.19;5059936;28;45350;-77
2021/12/20 01:52:10;;;;;;;;;34.50;27.25;;;;;7.39;73.03;102008.28;5059951;28;45357;-78
2021/12/20 01:54:36;;;;;;;;;30.25;26.50;;;;;7.43;73.09;102009.31;5060083;28;45348;-77
2021/12/20 01:57:02;;;;;;;;;33.75;29.00;;;;;7.49;73.70;102016.53;5060200;28;45492;-77
2021/12/20 01:59:28;;;;;;;;;26.75;24.25;;;;;7.50;72.91;102008.72;5059809;28;45428;-77
2021/12/20 02:01:54;;;;;;;;;36.50;27.25;;;;;7.52;72.56;102001.81;5059338;28;45333;-77
2021/12/20 02:04:20;;;;;;;;;35.75;32.00;;;;;7.49;72.59;102003.41;5059896;28;45386;-77
2021/12/20 02:06:48;;;;;;;;;27.75;25.00;;;;;7.48;73.28;102002.53;5059906;28;45370;-77
2021/12/20 02:09:18;;;;;;;;;40.75;34.75;;;;;7.54;72.64;102014.97;5041336;28;46700;-76
2021/12/20 02:11:47;;;;;;;;;37.25;34.75;;;;;7.54;73.08;102010.66;5059634;28;45392;-76
2021/12/20 02:14:13;;;;;;;;;42.75;37.25;;;;;7.55;72.88;102008.91;5059619;28;45297;-77
2021/12/20 02:16:40;;;;;;;;;38.25;35.75;;;;;7.52;72.48;102000.91;5059774;28;45580;-78
2021/12/20 02:19:09;;;;;;;;;42.00;36.75;;;;;7.36;72.10;101987.22;5059571;28;45607;-77
2021/12/20 02:21:35;;;;;;;;;43.50;34.75;;;;;7.42;72.06;101994.41;5059577;28;45464;-77
2021/12/20 02:24:02;;;;;;;;;36.25;29.25;;;;;7.26;72.22;101964.09;5059672;28;45432;-77
2021/12/20 02:26:27;;;;;;;;;41.25;38.75;;;;;7.41;72.86;101992.63;5059522;28;45561;-77
2021/12/20 02:28:55;;;;;;;;;51.75;40.25;;;;;7.40;72.22;101999.59;5059261;28;46417;-76
2021/12/20 02:39:22;;;;;;;;;45.00;38.00;;;;;7.37;73.11;101991.63;5059195;28;45169;-80
2021/12/20 02:41:48;;;;;;;;;35.50;32.25;;;;;7.35;72.27;101995.91;5058976;28;45168;-78
2021/12/20 02:44:18;;;;;;;;;56.75;40.00;;;;;7.38;72.36;101992.50;5059538;28;45342;-80
2021/12/20 02:49:22;;;;;;;;;50.50;42.25;;;;;7.47;72.66;101998.13;5058776;28;46148;-77
2021/12/20 02:51:50;;;;;;;;;40.25;37.25;;;;;7.48;72.46;101989.41;5059114;28;45256;-80
2021/12/20 02:54:18;;;;;;;;;47.50;41.00;;;;;7.48;72.87;101999.91;5058857;28;45445;-77
2021/12/20 02:56:44;;;;;;;;;38.25;36.00;;;;;7.37;73.31;101981.13;5059214;28;45390;-76
2021/12/20 02:59:11;;;;;;;;;58.75;44.25;;;;;7.37;72.67;101981.13;5058975;28;45610;-77
2021/12/20 03:01:39;;;;;;;;;47.00;39.75;;;;;7.39;72.17;101984.69;5058904;28;45219;-79
2021/12/20 03:04:05;;;;;;;;;49.00;41.00;;;;;7.27;72.57;101960.63;5058739;28;45338;-78
2021/12/20 03:06:52;;;;;;;;;45.25;39.50;;;;;7.48;72.71;101996.41;5059064;28;45308;-78
2021/12/20 03:09:21;;;;;;;;;49.25;38.50;;;;;7.43;72.93;101980.47;5058479;28;46008;-81
2021/12/20 03:11:51;;;;;;;;;38.50;37.25;;;;;7.46;72.64;101979.72;5058597;28;45451;-78
2021/12/20 03:14:26;;;;;;;;;51.00;37.25;;;;;7.37;72.22;101957.53;5058699;28;45465;-81
2021/12/20 03:16:52;;;;;;;;;44.00;38.00;;;;;7.48;72.65;101971.06;5058917;28;45450;-79
2021/12/20 03:19:17;;;;;;;;;29.75;25.50;;;;;7.31;72.80;101936.31;5058535;28;45421;-77
2021/12/20 03:21:43;;;;;;;;;53.25;41.25;;;;;7.32;72.97;101947.69;5058380;28;45326;-77
2021/12/20 03:24:08;;;;;;;;;47.75;40.00;;;;;7.23;71.86;101932.50;5058616;28;45755;-78
2021/12/20 03:26:34;;;;;;;;;46.50;38.75;;;;;7.37;71.86;101956.66;5058585;28;45334;-79
2021/12/20 03:29:00;;;;;;;;;49.50;42.25;;;;;7.41;72.00;101959.44;5058470;28;45437;-77
2021/12/20 03:31:25;;;;;;;;;46.50;37.25;;;;;7.47;72.48;101973.63;5058447;28;45365;-78
2021/12/20 03:33:50;;;;;;;;;41.25;35.50;;;;;7.40;72.59;101962.88;5058624;28;45349;-78
2021/12/20 03:36:16;;;;;;;;;37.00;34.00;;;;;7.21;72.26;101930.66;5058327;28;45379;-78
2021/12/20 03:38:41;;;;;;;;;36.00;30.75;;;;;7.38;72.53;101955.81;5058449;28;45315;-79
2021/12/20 03:41:07;;;;;;;;;43.00;38.00;;;;;7.35;72.56;101955.66;5058218;28;45288;-77
2021/12/20 03:43:33;;;;;;;;;48.75;35.00;;;;;7.35;72.72;101947.81;5058530;28;45290;-77
2021/12/20 03:45:59;;;;;;;;;40.25;38.25;;;;;7.38;72.33;101955.81;5058077;28;45178;-78
2021/12/20 03:48:26;;;;;;;;;36.25;32.50;;;;;7.28;71.85;101935.31;5056912;28;45388;-78
2021/12/20 03:50:52;;;;;;;;;42.75;29.75;;;;;7.40;71.40;101965.50;5058036;28;45353;-77
2021/12/20 03:53:18;;;;;;;;;40.00;33.25;;;;;7.34;71.50;101949.53;5058188;28;45393;-76
2021/12/20 03:55:43;;;;;;;;;35.50;34.75;;;;;7.34;71.80;101952.16;5058704;28;45424;-77
2021/12/20 03:58:09;;;;;;;;;45.25;36.00;;;;;7.22;72.26;101924.56;5059452;28;45343;-76
2021/12/20 04:00:34;;;;;;;;;40.50;34.25;;;;;7.23;71.71;101931.59;5059883;28;45351;-80
2021/12/20 04:03:02;;;;;;;;;35.50;33.50;;;;;7.01;72.08;101909.78;5060743;28;45350;-80
2021/12/20 04:05:27;;;;;;;;;42.00;39.00;;;;;7.00;71.53;101909.72;5060188;28;45370;-79
2021/12/20 04:07:53;;;;;;;;;44.25;36.50;;;;;7.16;72.72;101930.44;5059875;28;46437;-77
2021/12/20 04:10:18;;;;;;;;;48.75;37.75;;;;;7.31;71.71;101954.66;5059247;28;45206;-79
2021/12/20 04:12:43;;;;;;;;;39.25;31.25;;;;;7.28;72.75;101956.28;5058477;28;45515;-78
2021/12/20 04:15:09;;;;;;;;;37.25;35.50;;;;;7.27;72.71;101949.25;5058129;28;45321;-77
2021/12/20 04:17:34;;;;;;;;;34.75;32.50;;;;;7.23;71.87;101950.84;5057593;28;46320;-79
2021/12/20 04:20:01;;;;;;;;;44.75;39.25;;;;;7.28;72.58;101959.78;5057898;28;45436;-78
2021/12/20 04:22:26;;;;;;;;;42.00;34.75;;;;;7.09;72.29;101926.72;5057728;28;45251;-77
2021/12/20 04:24:52;;;;;;;;;48.00;38.75;;;;;7.20;72.70;101941.97;5057864;28;45379;-78
2021/12/20 04:27:17;;;;;;;;;44.00;38.00;;;;;7.29;72.72;101968.53;5057463;28;45323;-79
2021/12/20 04:29:42;;;;;;;;;35.50;33.00;;;;;7.15;72.55;101942.66;5057693;28;45351;-76
2021/12/20 04:32:08;;;;;;;;;45.00;37.00;;;;;7.25;72.97;101953.50;5057948;28;45331;-76
2021/12/20 04:34:33;;;;;;;;;43.00;38.00;;;;;7.29;72.85;101961.56;5057686;28;45492;-77
2021/12/20 04:36:59;;;;;;;;;41.75;36.50;;;;;7.33;72.45;101957.34;5057640;28;46346;-76
2021/12/20 04:39:29;;;;;;;;;46.25;39.50;;;;;7.21;72.65;101952.50;5057598;28;45362;-80
2021/12/20 04:41:55;;;;;;;;;37.25;36.50;;;;;7.25;72.92;101953.50;5057878;28;45264;-80
2021/12/20 04:44:21;;;;;;;;;47.00;39.00;;;;;7.30;72.37;101957.22;5057911;28;45352;-76
2021/12/20 04:46:46;;;;;;;;;44.00;34.50;;;;;7.33;72.96;101959.97;5057512;28;45480;-78
2021/12/20 04:49:12;;;;;;;;;31.00;29.00;;;;;7.26;73.08;101939.56;5057131;28;45434;-77
2021/12/20 04:51:37;;;;;;;;;35.00;27.25;;;;;7.17;72.98;101920.88;5057860;28;45338;-78
2021/12/20 04:54:03;;;;;;;;;37.25;31.25;;;;;7.34;72.32;101953.88;5057889;28;45627;-77
2021/12/20 04:56:28;;;;;;;;;36.00;33.00;;;;;7.28;72.96;101941.44;5057364;28;46216;-76
2021/12/20 04:58:54;;;;;;;;;41.75;37.75;;;;;7.29;72.34;101947.56;5059010;28;45436;-77
2021/12/20 05:01:19;;;;;;;;;46.75;40.00;;;;;7.01;72.05;101899.31;5061196;28;45299;-81
2021/12/20 05:03:45;;;;;;;;;40.50;34.25;;;;;6.98;73.04;101893.94;5061103;28;45301;-79
2021/12/20 05:06:10;;;;;;;;;78.00;58.00;;;;;7.13;72.52;101927.72;5060824;28;46169;-77
2021/12/20 05:08:46;;;;;;;;;40.50;38.25;;;;;7.37;72.77;101968.03;5060792;28;45437;-80
2021/12/20 05:11:11;;;;;;;;;43.50;38.75;;;;;7.32;72.59;101961.69;5060930;28;45421;-78
2021/12/20 05:13:37;;;;;;;;;50.25;41.00;;;;;7.35;72.41;101961.84;5060639;28;45247;-77
2021/12/20 05:16:03;;;;;;;;;38.25;36.75;;;;;7.29;72.50;101955.44;5060388;28;45374;-78
2021/12/20 05:18:28;;;;;;;;;47.50;36.25;;;;;6.95;72.23;101903.38;5060297;28;45318;-79
2021/12/20 05:20:53;;;;;;;;;37.25;33.50;;;;;7.06;71.96;101934.41;5060605;28;45220;-78
2021/12/20 05:23:19;;;;;;;;;37.00;33.25;;;;;6.98;72.17;101917.53;5060479;28;45478;-78
2021/12/20 05:25:44;;;;;;;;;40.25;35.75;;;;;7.20;71.92;101947.22;5042420;28;46649;-76
2021/12/20 05:28:10;;;;;;;;;42.25;33.75;;;;;7.22;72.01;101956.91;5060360;28;45231;-78
2021/12/20 05:30:36;;;;;;;;;34.50;32.00;;;;;7.31;72.27;101973.00;5060428;28;45276;-78
2021/12/20 05:33:02;;;;;;;;;33.00;28.50;;;;;7.24;72.68;101957.84;5060379;28;45373;-82
2021/12/20 05:35:28;;;;;;;;;40.25;34.75;;;;;7.33;72.56;101967.81;5059981;28;46371;-75
2021/12/20 05:37:54;;;;;;;;;38.50;35.25;;;;;7.31;72.05;101954.66;5060175;28;45254;-80
2021/12/20 05:40:20;;;;;;;;;37.50;34.50;;;;;7.32;72.38;101943.34;5041496;28;45481;-78
2021/12/20 05:42:48;;;;;;;;;41.50;30.25;;;;;7.36;72.49;101957.47;5041966;28;45499;-81
2021/12/20 05:45:14;;;;;;;;;36.50;35.50;;;;;7.33;72.76;101946.84;5059825;28;45485;-80
2021/12/20 05:47:39;;;;;;;;;35.50;27.75;;;;;7.34;72.22;101952.16;5059946;28;45278;-82
2021/12/20 05:50:07;;;;;;;;;32.75;25.75;;;;;7.33;72.05;101963.47;5059881;28;45280;-80
2021/12/20 05:52:33;;;;;;;;;39.50;33.75;;;;;7.32;72.52;101968.66;5060067;28;45476;-82
2021/12/20 05:54:58;;;;;;;;;27.50;27.00;;;;;7.24;71.99;101955.25;5059650;28;46887;-79
2021/12/20 05:57:23;;;;;;;;;33.25;28.00;;;;;7.17;72.10;101941.84;5059424;28;45499;-78
2021/12/20 05:59:49;;;;;;;;;33.75;30.75;;;;;7.04;72.29;101914.25;5059994;28;45326;-79
2021/12/20 06:02:15;;;;;;;;;30.25;29.50;;;;;7.22;71.58;101958.63;5059714;28;45389;-79
2021/12/20 06:04:40;;;;;;;;;32.50;25.75;;;;;7.17;72.17;101947.09;5059538;28;45298;-80
2021/12/20 06:07:08;;;;;;;;;41.25;30.50;;;;;7.24;72.01;101968.34;5059637;28;45417;-79
2021/12/20 06:09:33;;;;;;;;;27.75;26.75;;;;;7.24;71.54;101968.34;5040932;28;45266;-76
2021/12/20 06:11:59;;;;;;;;;24.00;21.25;;;;;7.19;71.66;101953.28;5059673;28;45252;-77
2021/12/20 06:14:28;;;;;;;;;33.00;31.50;;;;;7.16;71.80;101954.03;5059200;28;45395;-77
2021/12/20 06:16:55;;;;;;;;;25.25;24.00;;;;;7.15;72.24;101952.25;5059158;28;45333;-76
2021/12/20 06:19:23;;;;;;;;;29.75;24.75;;;;;7.06;72.51;101944.00;5059739;28;45317;-77
2021/12/20 06:21:48;;;;;;;;;33.25;28.50;;;;;6.97;71.77;101928.81;5059799;28;45161;-76
2021/12/20 06:24:13;;;;;;;;;32.75;29.50;;;;;7.09;71.90;101945.06;5059242;28;46078;-77
2021/12/20 06:26:39;;;;;;;;;37.25;27.25;;;;;7.11;71.81;101952.97;5059325;28;45295;-76
2021/12/20 06:29:04;;;;;;;;;30.00;28.25;;;;;7.21;72.17;101973.47;5059278;28;45378;-76
2021/12/20 06:31:30;;;;;;;;;28.50;26.50;;;;;7.22;72.41;101972.63;5059415;28;45369;-76
2021/12/20 06:33:55;;;;;;;;;29.00;28.00;;;;;7.09;71.79;101954.63;5059036;28;46043;-77
2021/12/20 06:36:21;;;;;;;;;41.25;28.25;;;;;7.07;72.40;101958.91;5059195;28;45216;-76
2021/12/20 06:38:47;;;;;;;;;24.50;21.00;;;;;7.04;71.90;101972.78;5059358;28;45272;-76
2021/12/20 06:41:13;;;;;;;;;25.75;25.50;;;;;6.97;72.43;101959.34;5059030;28;45486;-79
2021/12/20 06:43:40;;;;;;;;;51.75;41.25;;;;;6.81;72.11;101944.75;5058663;28;46163;-76
2021/12/20 06:46:05;;;;;;;;;26.00;22.25;;;;;7.04;72.63;101979.75;5058523;28;45398;-76
2021/12/20 06:48:31;;;;;;;;;29.25;26.25;;;;;6.98;72.30;101972.53;5040739;28;45438;-76
2021/12/20 06:50:56;;;;;;;;;27.00;23.75;;;;;7.06;71.99;101978.97;5041084;28;45570;-76
2021/12/20 06:53:21;;;;;;;;;26.50;21.25;;;;;6.95;71.92;101974.13;5058904;28;46152;-77
2021/12/20 06:55:47;;;;;;;;;25.75;21.50;;;;;7.02;72.57;101992.78;5058486;28;45272;-76
2021/12/20 06:58:12;;;;;;;;;27.75;23.50;;;;;6.93;71.96;101976.69;5058587;28;45302;-80
2021/12/20 07:00:38;;;;;;;;;30.00;27.00;;;;;7.05;71.55;101995.53;5058429;28;45620;-77
2021/12/20 07:03:04;;;;;;;;;21.00;19.50;;;;;7.05;72.52;101995.53;5040331;28;47228;-78
2021/12/20 07:05:30;;;;;;;;;24.75;21.75;;;;;6.97;71.90;101983.81;5058801;28;45206;-78
2021/12/20 07:07:56;;;;;;;;;24.25;22.00;;;;;6.97;71.89;101991.69;5058787;28;45239;-77
2021/12/20 07:10:21;;;;;;;;;22.25;22.25;;;;;6.89;71.40;101985.25;5058823;28;45205;-77
2021/12/20 07:12:47;;;;;;;;;22.25;22.00;;;;;6.87;71.56;101979.03;5058340;28;45330;-77
2021/12/20 07:15:14;;;;;;;;;28.75;27.50;;;;;6.97;72.11;101998.66;5058639;28;45240;-78
2021/12/20 07:17:42;;;;;;;;;28.75;26.50;;;;;6.99;71.34;101997.91;5058741;28;45322;-78
2021/12/20 07:20:09;;;;;;;;;20.75;19.25;;;;;6.95;71.29;101985.50;5059022;28;45428;-77
2021/12/20 07:22:34;;;;;;;;;25.50;22.00;;;;;6.86;70.88;101970.28;5057216;28;46776;-77
2021/12/20 07:25:00;;;;;;;;;19.75;17.25;;;;;6.67;71.78;101928.44;5058457;28;45312;-78
2021/12/20 07:27:26;;;;;;;;;24.25;24.25;;;;;7.00;71.06;101994.44;5058436;28;45224;-78
2021/12/20 07:29:51;;;;;;;;;34.75;24.00;;;;;6.78;71.32;101966.44;5058527;28;45312;-78
2021/12/20 07:32:17;;;;;;;;;20.75;20.75;;;;;6.78;71.06;101962.91;5058017;28;45514;-77
2021/12/20 07:34:42;;;;;;;;;23.50;22.25;;;;;6.85;70.98;101978.06;5058448;28;45446;-79
2021/12/20 07:37:07;;;;;;;;;25.75;22.00;;;;;6.95;70.59;101998.59;5058592;28;45706;-78
2021/12/20 07:39:37;;;;;;;;;19.50;19.50;;;;;6.72;71.23;101949.59;5058516;28;45414;-78
2021/12/20 07:42:03;;;;;;;;;20.00;17.50;;;;;6.70;70.97;101959.09;5058001;28;45264;-79
2021/12/20 07:44:28;;;;;;;;;18.25;14.00;;;;;6.93;70.40;102007.22;5058137;28;45254;-79
2021/12/20 07:46:54;;;;;;;;;33.25;27.00;;;;;6.54;71.42;101944.47;5057849;28;45285;-79
2021/12/20 07:49:19;;;;;;;;;24.50;21.75;;;;;6.90;71.75;101992.28;5058224;28;45262;-79
2021/12/20 07:51:46;;;;;;;;;34.00;24.25;;;;;6.82;71.84;101983.19;5057761;28;45257;-77
2021/12/20 07:54:11;;;;;;;;;39.50;29.25;;;;;6.85;71.23;101976.34;5057737;28;45207;-78
2021/12/20 07:56:37;;;;;;;;;30.00;25.75;;;;;6.92;70.28;102001.09;5057847;28;45215;-81
2021/12/20 07:59:02;;;;;;;;;22.25;22.25;;;;;6.89;71.37;102003.59;5058269;28;45453;-78
2021/12/20 08:01:29;;;;;;;;;24.75;21.00;;;;;6.76;70.67;101970.72;5057732;28;45334;-78
2021/12/20 08:03:55;;;;;;;;;26.75;24.75;;;;;6.86;71.29;102001.72;5057716;28;45450;-78
2021/12/20 08:06:21;;;;;;;;;29.25;28.25;;;;;6.90;71.97;101997.50;5057849;28;45427;-78
2021/12/20 08:08:46;;;;;;;;;33.25;23.00;;;;;6.75;71.78;101968.94;5057938;28;45427;-79
2021/12/20 08:11:12;;;;;;;;;31.00;26.25;;;;;6.91;71.47;101996.69;5057569;28;45723;-79
2021/12/20 08:13:44;;;;;;;;;26.50;22.50;;;;;6.87;71.53;101979.03;5039260;28;46317;-78
2021/12/20 08:16:14;;;;;;;;;26.50;20.50;;;;;6.85;70.82;101976.34;5057685;28;45325;-80
2021/12/20 08:18:42;;;;;;;;;35.50;26.75;;;;;6.74;71.29;101961.91;5057912;28;45157;-80
2021/12/20 08:21:07;;;;;;;;;34.25;26.75;;;;;7.05;70.45;102008.63;5057473;28;45382;-78
2021/12/20 08:23:33;;;;;;;;;32.00;27.25;;;;;6.71;70.85;101964.41;5058714;28;45453;-78
2021/12/20 08:25:59;;;;;;;;;26.75;23.00;;;;;6.95;70.48;102016.91;5058724;28;45432;-78
2021/12/20 08:28:24;;;;;;;;;27.25;25.25;;;;;6.88;70.92;102012.25;5058976;28;45376;-80
2021/12/20 08:30:49;;;;;;;;;37.00;29.75;;;;;6.95;70.10;102018.66;5060281;28;46709;-77
2021/12/20 08:33:15;;;;;;;;;37.75;29.75;;;;;6.86;70.93;102006.06;5059656;28;45374;-78
2021/12/20 08:35:42;;;;;;;;;30.25;26.50;;;;;6.97;70.99;102020.50;5058686;28;45530;-78
2021/12/20 08:38:08;;;;;;;;;21.50;20.00;;;;;6.72;71.38;101981.00;5058995;28;45307;-77
2021/12/20 08:40:33;;;;;;;;;34.50;30.50;;;;;6.71;70.24;101972.28;5059047;28;45485;-77
2021/12/20 08:42:58;;;;;;;;;28.50;26.00;;;;;6.81;71.05;101981.41;5059044;28;45326;-78
2021/12/20 08:45:24;;;;;;;;;33.75;26.50;;;;;7.07;69.99;102035.81;5058719;28;45372;-78
2021/12/20 08:47:50;;;;;;;;;38.50;30.75;;;;;7.09;70.34;102028.91;5059175;28;45259;-77
2021/12/20 08:50:19;;;;;;;;;32.25;28.00;;;;;7.00;69.67;102012.78;5059554;28;45507;-78
2021/12/20 08:52:44;;;;;;;;;25.75;25.75;;;;;7.15;69.60;102036.09;5060424;28;45317;-76
2021/12/20 08:55:11;;;;;;;;;33.00;31.50;;;;;7.15;69.10;102044.84;5060272;28;45441;-78
2021/12/20 08:57:37;;;;;;;;;34.00;34.00;;;;;7.07;69.84;102037.50;5059617;28;45389;-78
2021/12/20 09:00:06;;;;;;;;;28.00;26.50;;;;;7.13;68.74;102037.78;5059845;28;45294;-77
2021/12/20 09:02:31;;;;;;;;;28.00;27.50;;;;;7.04;69.31;102026.91;5058124;28;45295;-76
2021/12/20 09:04:56;;;;;;;;;36.25;27.25;;;;;7.12;69.21;102036.88;5057818;28;45269;-78
2021/12/20 09:07:22;;;;;;;;;40.00;34.25;;;;;7.13;69.18;102037.78;5039788;28;45572;-77
2021/12/20 09:09:48;;;;;;;;;37.75;31.75;;;;;7.12;68.77;102036.88;5057461;28;45456;-77
2021/12/20 09:12:18;;;;;;;;;35.75;24.75;;;;;7.01;69.41;102008.44;5056784;28;45468;-78
2021/12/20 09:14:45;;;;;;;;;34.25;30.25;;;;;7.21;68.40;102043.34;5057069;28;45470;-76
2021/12/20 09:17:10;;;;;;;;;32.00;30.75;;;;;7.25;68.40;102040.00;5056937;28;45204;-77
2021/12/20 09:19:36;;;;;;;;;30.75;27.75;;;;;7.16;67.95;102032.66;5056664;28;47018;-76
2021/12/20 09:22:06;;;;;;;;;34.50;30.25;;;;;7.25;68.59;102054.00;5056767;28;45223;-78
2021/12/20 09:24:33;;;;;;;;;29.50;26.25;;;;;7.25;67.78;102047.88;5056544;28;45329;-78
2021/12/20 09:26:58;;;;;;;;;47.25;37.75;;;;;7.02;67.91;102018.97;5056997;28;45343;-78
2021/12/20 09:29:24;;;;;;;;;34.00;29.75;;;;;7.06;68.10;102033.97;5057182;28;46500;-78
2021/12/20 09:31:49;;;;;;;;;30.75;26.50;;;;;7.02;68.48;102046.91;5057201;28;45581;-79
2021/12/20 09:34:15;;;;;;;;;35.00;29.50;;;;;6.97;68.84;102037.94;5057075;28;45172;-78
2021/12/20 09:36:40;;;;;;;;;33.25;27.75;;;;;6.82;68.70;102020.75;5057097;28;45160;-79
2021/12/20 09:39:10;;;;;;;;;37.25;30.75;;;;;6.99;68.50;102044.16;5057685;28;46164;-81
2021/12/20 09:44:06;;;;;;;;;31.00;24.25;;;;;6.89;68.94;102032.41;5057670;28;45263;-79
2021/12/20 09:46:32;;;;;;;;;28.50;27.50;;;;;6.80;68.85;102018.91;5059710;28;45320;-79
2021/12/20 09:48:58;;;;;;;;;30.75;27.00;;;;;7.06;68.16;102046.19;5060260;28;46484;-81
2021/12/20 09:51:23;;;;;;;;;41.00;32.00;;;;;7.13;68.54;102058.72;5061120;28;45390;-82
2021/12/20 09:53:49;;;;;;;;;34.25;26.00;;;;;6.81;68.33;101987.53;5061074;28;45418;-80
2021/12/20 09:56:17;;;;;;;;;36.50;32.00;;;;;6.97;68.06;102015.25;5060108;28;45302;-80
2021/12/20 09:58:43;;;;;;;;;28.75;27.50;;;;;7.24;67.83;102054.84;5061192;28;45240;-82
2021/12/20 10:01:12;;;;;;;;;27.50;27.25;;;;;7.03;68.54;102020.75;5060383;28;45259;-81
2021/12/20 10:03:38;;;;;;;;;33.75;28.50;;;;;7.20;67.50;102060.78;5060231;28;45404;-84
2021/12/20 10:06:05;;;;;;;;;33.00;25.00;;;;;6.88;68.10;101995.63;5060147;28;45327;-79
2021/12/20 10:08:36;;;;;;;;;38.75;29.50;;;;;7.15;67.90;102021.28;5059542;28;45524;-80
2021/12/20 10:11:16;;;;;;;;;24.50;24.25;;;;;7.03;66.96;102009.41;5059575;28;45194;-81
2021/12/20 10:13:42;;;;;;;;;38.25;29.00;;;;;7.11;66.95;102022.00;5059763;28;45383;-81
2021/12/20 10:16:17;;;;;;;;;28.75;23.25;;;;;7.38;67.84;102047.56;5059946;28;45449;-82
2021/12/20 10:18:43;;;;;;;;;27.50;24.00;;;;;7.34;67.53;102054.38;5059461;28;46405;-80
2021/12/20 10:21:08;;;;;;;;;30.75;25.50;;;;;7.31;66.71;102040.25;5059317;28;45327;-79
2021/12/20 10:23:40;;;;;;;;;31.75;27.75;;;;;7.17;67.35;102015.22;5059084;28;45256;-79
2021/12/20 10:26:19;;;;;;;;;29.25;26.00;;;;;7.28;67.03;102032.28;5059334;28;45427;-79
2021/12/20 10:28:51;;;;;;;;;26.25;24.75;;;;;7.46;66.98;102051.41;5059326;28;46515;-79
2021/12/20 10:31:19;;;;;;;;;24.00;23.75;;;;;7.46;66.48;102046.16;5058912;28;45551;-79
2021/12/20 10:34:00;;;;;;;;;22.25;21.75;;;;;7.43;66.92;102053.88;5041277;28;45249;-78
2021/12/20 10:36:26;;;;;;;;;33.75;28.50;;;;;7.43;67.10;102052.13;5059329;28;45497;-79
2021/12/20 10:38:57;;;;;;;;;22.25;22.25;;;;;7.17;66.66;102016.13;5059194;28;45665;-79
2021/12/20 10:41:39;;;;;;;;;26.50;26.50;;;;;7.39;67.89;102042.38;5059001;28;45498;-79
2021/12/20 10:44:24;;;;;;;;;18.00;14.75;;;;;7.40;66.86;102035.41;5058911;28;45432;-79
2021/12/20 10:46:52;;;;;;;;;24.00;20.25;;;;;7.29;67.12;102008.75;5058666;28;45257;-79
2021/12/20 10:49:24;;;;;;;;;22.00;19.25;;;;;7.39;66.08;102029.25;5058671;28;46169;-79
2021/12/20 10:51:51;;;;;;;;;12.75;12.75;;;;;7.31;66.57;102016.69;5058807;28;45248;-80
2021/12/20 10:54:21;;;;;;;;;18.00;16.25;;;;;7.43;66.03;102030.28;5058815;28;45272;-80
2021/12/20 10:56:51;;;;;;;;;20.25;17.50;;;;;7.46;66.02;102029.53;5040424;28;45582;-80
2021/12/20 10:59:20;;;;;;;;;23.00;19.75;;;;;7.36;66.50;102009.91;5058318;28;45407;-79
2021/12/20 11:04:36;;;;;;;;;17.75;15.75;;;;;7.40;65.65;102035.41;5058551;28;45263;-79
2021/12/20 11:09:36;;;;;;;;;22.75;21.00;;;;;7.30;66.95;102039.38;5058435;28;46023;-79
2021/12/20 11:12:05;;;;;;;;;19.75;17.25;;;;;7.20;66.14;102010.09;5058386;28;45467;-79
2021/12/20 11:14:36;;;;;;;;;25.75;21.00;;;;;7.28;66.44;102013.94;5058395;28;45459;-80
2021/12/20 11:17:03;;;;;;;;;20.50;17.75;;;;;7.14;66.84;101993.28;5058819;28;45272;-81
2021/12/20 11:19:34;;;;;;;;;22.25;17.00;;;;;7.21;67.04;102004.03;5058539;28;45411;-80
2021/12/20 11:22:12;;;;;;;;;20.75;19.75;;;;;7.32;65.71;102014.09;5058723;28;45262;-80
2021/12/20 11:24:42;;;;;;;;;13.00;11.50;;;;;7.03;65.70;101949.13;5040088;28;45233;-79
2021/12/20 11:27:17;;;;;;;;;13.50;12.25;;;;;7.16;65.23;101982.84;5058834;28;45322;-80
2021/12/20 11:29:45;;;;;;;;;19.75;15.75;;;;;7.27;66.04;102001.66;5040098;28;47803;-82
2021/12/20 11:32:10;;;;;;;;;18.50;15.50;;;;;7.25;65.75;101985.84;5039780;28;45307;-83
2021/12/20 11:34:38;;;;;;;;;13.00;11.00;;;;;7.49;65.27;102008.66;5058395;28;45208;-81
2021/12/20 11:37:05;;;;;;;;;16.75;12.75;;;;;7.38;64.88;101980.28;5040366;28;45394;-79